Time;durP1;ratioP1;P1;durP2;ratioP2;P2;SDS_P1;SDS_P2;PMS_P1;PMS_P2;Temp;Humidity;BMP_temperature;BMP_pressure;BME280_temperature;BME280_humidity;BME280_pressure;Samples;Min_cycle;Max_cycle;Signal;HPM_P1;HPM_P2
2023/02/18 00:01:30;;;;;;;41.95;24.20;;;10.20;99.90;;;;;;4956015;28;20493;-88
2023/02/18 00:03:58;;;;;;;43.45;23.00;;;10.20;99.90;;;;;;4956775;28;20045;-87
2023/02/18 00:06:28;;;;;;;47.30;24.23;;;10.20;99.90;;;;;;4971886;28;20030;-87
2023/02/18 00:08:59;;;;;;;53.95;27.23;;;10.20;99.90;;;;;;4972211;28;20039;-87
2023/02/18 00:11:27;;;;;;;38.75;22.38;;;10.20;99.90;;;;;;4973212;28;20048;-86
2023/02/18 00:13:56;;;;;;;46.80;24.45;;;10.20;99.90;;;;;;4973291;28;20042;-87
2023/02/18 00:16:25;;;;;;;45.70;23.73;;;10.10;99.90;;;;;;4973970;28;20053;-88
2023/02/18 00:19:00;;;;;;;37.78;21.27;;;10.10;99.90;;;;;;4990809;28;20030;-89
2023/02/18 00:21:31;;;;;;;45.40;23.52;;;10.20;99.90;;;;;;4975512;28;20038;-88
2023/02/18 00:23:58;;;;;;;43.88;23.80;;;10.10;99.90;;;;;;4970843;28;20101;-87
2023/02/18 00:26:24;;;;;;;48.65;25.00;;;10.10;99.90;;;;;;4972764;28;20043;-87
2023/02/18 00:28:53;;;;;;;61.90;27.92;;;10.20;99.90;;;;;;4995507;28;20038;-88
2023/02/18 00:31:25;;;;;;;52.47;26.92;;;10.20;99.90;;;;;;4972125;28;20035;-87
2023/02/18 00:33:52;;;;;;;44.08;23.67;;;10.20;99.90;;;;;;4974240;28;20417;-89
2023/02/18 00:36:20;;;;;;;40.65;23.63;;;10.20;99.90;;;;;;4903297;28;2850206;-87
2023/02/18 00:38:58;;;;;;;42.78;22.77;;;10.20;99.90;;;;;;4997057;28;20046;-89
2023/02/18 00:41:27;;;;;;;47.65;25.88;;;10.20;99.90;;;;;;4976047;28;20045;-87
2023/02/18 00:43:54;;;;;;;53.03;26.55;;;10.20;99.90;;;;;;4992082;28;20042;-89
2023/02/18 00:46:22;;;;;;;46.90;25.73;;;10.20;99.90;;;;;;4993796;28;20100;-88
2023/02/18 00:48:48;;;;;;;58.88;28.77;;;10.20;99.90;;;;;;4989812;28;20034;-87
2023/02/18 00:51:16;;;;;;;46.75;26.67;;;10.20;99.90;;;;;;4993577;28;20121;-88
2023/02/18 00:53:42;;;;;;;49.05;25.55;;;10.20;99.90;;;;;;5012629;28;20130;-88
2023/02/18 00:56:09;;;;;;;62.67;30.30;;;10.20;99.90;;;;;;4993891;28;20461;-90
2023/02/18 00:58:38;;;;;;;46.22;25.60;;;10.20;99.90;;;;;;4999776;28;20048;-87
2023/02/18 01:01:09;;;;;;;49.97;28.35;;;10.20;99.90;;;;;;5014590;28;20057;-88
2023/02/18 01:03:37;;;;;;;48.40;26.30;;;10.20;99.90;;;;;;5004417;28;20034;-89
2023/02/18 01:06:06;;;;;;;51.83;27.35;;;10.20;99.90;;;;;;5018093;28;20049;-89
2023/02/18 01:08:33;;;;;;;44.60;25.67;;;10.20;99.90;;;;;;4990555;28;20118;-88
2023/02/18 01:11:01;;;;;;;54.58;27.63;;;10.20;99.90;;;;;;4967564;28;20038;-88
2023/02/18 01:13:32;;;;;;;49.70;26.55;;;10.20;99.90;;;;;;4993619;28;20140;-91
2023/02/18 01:15:59;;;;;;;49.47;25.25;;;10.20;99.90;;;;;;4995171;28;20041;-89
2023/02/18 01:18:29;;;;;;;42.83;23.55;;;10.20;99.90;;;;;;4995071;28;20029;-89
2023/02/18 01:20:56;;;;;;;40.58;22.77;;;10.20;99.90;;;;;;4997815;28;20045;-90
2023/02/18 01:23:23;;;;;;;47.20;26.02;;;10.20;99.90;;;;;;4998565;28;20056;-89
2023/02/18 01:25:50;;;;;;;50.53;26.45;;;10.30;99.90;;;;;;4998462;28;20038;-88
2023/02/18 01:28:18;;;;;;;48.35;25.85;;;10.30;99.90;;;;;;5003082;28;20029;-89
2023/02/18 01:30:47;;;;;;;45.25;26.13;;;10.30;99.90;;;;;;4999948;28;20545;-89
2023/02/18 01:33:15;;;;;;;50.47;27.73;;;10.30;99.90;;;;;;5008752;28;20033;-89
2023/02/18 01:35:43;;;;;;;48.22;26.77;;;10.30;99.90;;;;;;5011894;28;20030;-88
2023/02/18 01:38:09;;;;;;;47.90;26.50;;;10.30;99.90;;;;;;5015227;28;20818;-89
2023/02/18 01:40:42;;;;;;;54.17;29.40;;;10.20;99.90;;;;;;4982905;28;20513;-87
2023/02/18 01:43:15;;;;;;;54.15;28.88;;;10.30;99.90;;;;;;4999461;28;20417;-88
2023/02/18 01:45:49;;;;;;;;;;;10.20;99.90;;;;;;4995100;28;20080;-88
2023/02/18 01:48:29;;;;;;;57.92;30.15;;;10.20;99.90;;;;;;5017408;28;19917;-89
2023/02/18 01:51:12;;;;;;;64.70;33.55;;;10.20;99.90;;;;;;4992863;28;20052;-88
2023/02/18 01:54:20;;;;;;;59.58;31.67;;;10.20;99.90;;;;;;5012314;28;20104;-87
2023/02/18 01:57:00;;;;;;;55.20;30.73;;;10.20;99.90;;;;;;4983143;28;20042;-89
2023/02/18 01:59:45;;;;;;;71.97;35.63;;;10.20;99.90;;;;;;5013842;28;20037;-89
2023/02/18 02:02:16;;;;;;;64.78;33.50;;;10.20;99.90;;;;;;4990969;28;20050;-87
2023/02/18 02:04:43;;;;;;;66.18;33.05;;;10.20;99.90;;;;;;4993136;28;20042;-86
2023/02/18 02:07:17;;;;;;;63.58;32.00;;;10.20;99.90;;;;;;4997500;28;20061;-89
2023/02/18 02:09:44;;;;;;;71.88;33.63;;;10.20;99.90;;;;;;5009995;28;20096;-89
2023/02/18 02:12:34;;;;;;;64.75;33.08;;;10.20;99.90;;;;;;4975038;28;20116;-88
2023/02/18 02:15:48;;;;;;;65.18;34.05;;;10.20;99.90;;;;;;5012237;28;20037;-89
2023/02/18 02:18:23;;;;;;;65.15;33.78;;;10.10;99.90;;;;;;4966269;28;20038;-89
2023/02/18 02:21:12;;;;;;;67.45;34.58;;;10.10;99.90;;;;;;5015216;28;20042;-89
2023/02/18 02:24:15;;;;;;;65.22;34.72;;;10.10;99.90;;;;;;4992770;28;20072;-89
2023/02/18 02:27:06;;;;;;;68.60;33.95;;;10.10;99.90;;;;;;5013711;28;20470;-88
2023/02/18 02:30:11;;;;;;;67.38;34.53;;;10.10;99.90;;;;;;4996927;28;20046;-89
2023/02/18 02:33:07;;;;;;;61.00;31.75;;;10.10;99.90;;;;;;4994833;28;20142;-88
2023/02/18 02:35:42;;;;;;;66.68;32.85;;;10.10;99.90;;;;;;4990552;28;20078;-88
2023/02/18 02:38:55;;;;;;;70.35;35.78;;;10.10;99.90;;;;;;4975321;28;20038;-89
2023/02/18 02:41:53;;;;;;;76.47;37.10;;;10.20;99.90;;;;;;4973070;28;20038;-90
2023/02/18 02:44:34;;;;;;;79.90;40.05;;;10.20;99.90;;;;;;4965056;28;20034;-88
2023/02/18 02:47:11;;;;;;;72.47;37.75;;;10.20;99.90;;;;;;4990696;28;20050;-89
2023/02/18 02:50:20;;;;;;;76.43;38.58;;;10.20;99.90;;;;;;4972998;28;20042;-89
2023/02/18 02:52:51;;;;;;;72.97;35.78;;;10.20;99.90;;;;;;4993299;28;20439;-89
2023/02/18 02:55:18;;;;;;;72.85;37.88;;;10.20;99.90;;;;;;4976526;28;20030;-88
2023/02/18 02:57:53;;;;;;;78.38;37.95;;;10.30;99.90;;;;;;4975535;28;20071;-89
2023/02/18 03:00:34;;;;;;;77.45;39.03;;;10.30;99.90;;;;;;4977507;28;20038;-90
2023/02/18 03:03:29;;;;;;;79.72;38.15;;;10.30;99.90;;;;;;4991992;28;20180;-89
2023/02/18 03:06:16;;;;;;;73.30;36.80;;;10.30;99.90;;;;;;4973932;28;20039;-88
2023/02/18 03:09:18;;;;;;;77.55;36.38;;;10.30;99.90;;;;;;4977640;28;20069;-90
2023/02/18 03:12:22;;;;;;;87.28;41.60;;;10.40;99.90;;;;;;4990180;28;20038;-89
2023/02/18 03:15:12;;;;;;;91.07;40.22;;;10.30;99.90;;;;;;4926428;29;20040;-90
2023/02/18 03:17:59;;;;;;;82.13;36.75;;;10.30;99.90;;;;;;4931848;28;20043;-90
2023/02/18 03:20:33;;;;;;;78.28;36.30;;;10.40;99.90;;;;;;4990074;28;20062;-90
2023/02/18 03:23:06;;;;;;;72.03;33.92;;;10.40;99.90;;;;;;4977022;28;20053;-90
2023/02/18 03:25:37;;;;;;;69.03;31.70;;;10.40;99.90;;;;;;4955715;28;20039;-91
2023/02/18 03:28:19;;;;;;;72.47;33.33;;;10.40;99.90;;;;;;4976057;28;20483;-93
2023/02/18 03:30:56;;;;;;;63.95;31.88;;;10.40;99.90;;;;;;4959138;28;20046;-95
2023/02/18 03:33:32;;;;;;;67.32;31.77;;;10.40;99.90;;;;;;4975979;28;20467;-91
2023/02/18 03:35:59;;;;;;;57.45;29.13;;;10.50;99.90;;;;;;4984345;28;20050;-90
2023/02/18 03:38:41;;;;;;;56.00;28.13;;;10.40;99.90;;;;;;4970731;28;20502;-90
2023/02/18 03:41:13;;;;;;;52.42;27.02;;;10.40;99.90;;;;;;4991521;28;20038;-92
2023/02/18 03:43:51;;;;;;;63.92;30.73;;;10.40;99.90;;;;;;4975043;28;20042;-91
2023/02/18 03:46:20;;;;;;;54.85;27.38;;;10.40;99.90;;;;;;4973497;28;20094;-93
2023/02/18 03:48:48;;;;;;;51.67;26.00;;;10.40;99.90;;;;;;4990670;28;20038;-92
2023/02/18 03:51:18;;;;;;;41.47;22.55;;;10.40;99.90;;;;;;4959049;28;20042;-92
2023/02/18 03:53:49;;;;;;;43.35;23.05;;;10.40;99.90;;;;;;4974959;28;20052;-91
2023/02/18 03:56:22;;;;;;;41.50;21.92;;;10.40;99.90;;;;;;4967898;28;20030;-93
2023/02/18 03:58:50;;;;;;;39.22;20.58;;;10.50;99.90;;;;;;4968454;28;20038;-91
2023/02/18 04:01:19;;;;;;;37.33;19.88;;;10.40;99.90;;;;;;4990359;28;20121;-90
2023/02/18 04:03:47;;;;;;;35.25;18.77;;;10.40;99.90;;;;;;4975062;28;20053;-91
2023/02/18 04:06:15;;;;;;;37.55;20.42;;;10.50;99.90;;;;;;4974677;28;20041;-92
2023/02/18 04:08:42;;;;;;;37.60;21.13;;;10.50;99.90;;;;;;4973495;28;20037;-93
2023/02/18 04:11:09;;;;;;;32.10;18.40;;;10.50;99.90;;;;;;4990686;28;20083;-94
2023/02/18 04:13:37;;;;;;;34.38;18.10;;;10.50;99.90;;;;;;4957512;28;20167;-92
2023/02/18 04:16:06;;;;;;;38.38;20.55;;;10.50;99.90;;;;;;4970728;28;20106;-93
2023/02/18 04:18:33;;;;;;;35.00;19.23;;;10.50;99.90;;;;;;4976540;28;20041;-91
2023/02/18 04:21:09;;;;;;;35.85;19.67;;;10.50;99.90;;;;;;4991369;28;20034;-90
2023/02/18 04:23:36;;;;;;;34.60;18.77;;;10.50;99.90;;;;;;4969818;28;20053;-92
2023/02/18 04:26:04;;;;;;;40.25;21.02;;;10.50;99.90;;;;;;4973031;28;20041;-91
2023/02/18 04:28:32;;;;;;;39.50;20.05;;;10.50;99.90;;;;;;4970252;28;20065;-91
2023/02/18 04:31:00;;;;;;;37.33;19.20;;;10.50;99.90;;;;;;4973842;28;20070;-92
2023/02/18 04:33:26;;;;;;;35.20;18.08;;;10.50;99.90;;;;;;4973792;28;20491;-91
2023/02/18 04:35:55;;;;;;;31.60;16.17;;;10.50;99.90;;;;;;4974543;28;20066;-92
2023/02/18 04:38:22;;;;;;;30.05;15.85;;;10.50;99.90;;;;;;4973766;28;20445;-92
2023/02/18 04:40:51;;;;;;;28.50;14.70;;;10.50;99.90;;;;;;4972165;28;21898;-94
2023/02/18 04:43:23;;;;;;;28.48;15.38;;;10.50;99.90;;;;;;4974467;28;20162;-91
2023/02/18 04:45:52;;;;;;;27.17;13.48;;;10.50;99.90;;;;;;4992782;28;20034;-90
2023/02/18 04:48:24;;;;;;;28.17;13.38;;;10.50;99.90;;;;;;4971863;28;20050;-90
2023/02/18 04:50:53;;;;;;;26.02;13.38;;;10.50;99.90;;;;;;4976990;28;20030;-91
2023/02/18 04:53:21;;;;;;;23.73;12.45;;;10.50;99.90;;;;;;4979045;28;20092;-93
2023/02/18 04:55:53;;;;;;;24.65;12.32;;;10.50;99.90;;;;;;4979219;28;20027;-92
2023/02/18 04:58:28;;;;;;;24.27;12.43;;;10.50;99.90;;;;;;4980193;28;20514;-91
2023/02/18 05:01:05;;;;;;;23.17;11.82;;;10.50;99.90;;;;;;4977875;28;20034;-92
2023/02/18 05:03:32;;;;;;;20.77;10.57;;;10.40;99.90;;;;;;4974812;28;20451;-90
2023/02/18 05:06:02;;;;;;;20.30;11.27;;;10.50;99.90;;;;;;4974749;28;20038;-92
2023/02/18 05:08:30;;;;;;;20.48;10.50;;;10.40;99.90;;;;;;5000289;28;20049;-91
2023/02/18 05:10:56;;;;;;;20.98;10.77;;;10.50;99.90;;;;;;4994194;28;20046;-92
2023/02/18 05:13:26;;;;;;;20.42;11.05;;;10.40;99.90;;;;;;4996115;28;20046;-93
2023/02/18 05:15:54;;;;;;;17.90;9.65;;;10.50;99.90;;;;;;4961485;28;20423;-92
2023/02/18 05:18:33;;;;;;;19.23;9.88;;;10.40;99.90;;;;;;4979533;28;20042;-92
2023/02/18 05:21:00;;;;;;;20.15;10.68;;;10.40;99.90;;;;;;4997058;28;20542;-92
2023/02/18 05:23:27;;;;;;;17.63;9.70;;;10.40;99.90;;;;;;4979071;28;20034;-92
2023/02/18 05:25:54;;;;;;;17.70;9.00;;;10.40;99.90;;;;;;4962743;28;20038;-91
2023/02/18 05:28:22;;;;;;;17.38;9.95;;;10.40;99.90;;;;;;4986496;28;20045;-90
2023/02/18 05:30:53;;;;;;;17.92;10.30;;;10.40;99.90;;;;;;4979431;28;20050;-90
2023/02/18 05:33:21;;;;;;;16.95;9.45;;;10.40;99.90;;;;;;4966306;28;20050;-90
2023/02/18 05:35:51;;;;;;;16.33;9.57;;;10.40;99.90;;;;;;4981714;28;20073;-93
2023/02/18 05:38:20;;;;;;;16.70;9.35;;;10.40;99.90;;;;;;4992000;28;20050;-91
2023/02/18 05:40:48;;;;;;;12.15;7.32;;;10.40;99.90;;;;;;4994144;28;20046;-91
2023/02/18 05:43:15;;;;;;;12.82;7.53;;;10.40;99.90;;;;;;4961134;28;20046;-92
2023/02/18 05:45:55;;;;;;;12.82;7.65;;;10.40;99.90;;;;;;4977975;28;20049;-94
2023/02/18 05:48:23;;;;;;;12.57;7.15;;;10.40;99.90;;;;;;4992058;28;20042;-92
2023/02/18 05:50:52;;;;;;;11.68;7.15;;;10.40;99.90;;;;;;4993405;28;20125;-93
2023/02/18 05:53:21;;;;;;;11.30;7.10;;;10.40;99.90;;;;;;4980911;28;20054;-92
2023/02/18 05:55:49;;;;;;;11.38;6.50;;;10.40;99.90;;;;;;4977522;28;20046;-90
2023/02/18 05:58:19;;;;;;;11.20;5.88;;;10.30;99.90;;;;;;4978023;28;20027;-92
2023/02/18 06:00:47;;;;;;;11.80;6.70;;;10.30;99.90;;;;;;4978439;28;20038;-93
2023/02/18 06:03:15;;;;;;;9.13;5.43;;;10.30;99.90;;;;;;4957939;28;20049;-91
2023/02/18 06:05:43;;;;;;;8.68;5.68;;;10.30;99.90;;;;;;4976097;28;20038;-92
2023/02/18 06:08:09;;;;;;;9.63;5.97;;;10.30;99.90;;;;;;4978404;28;20042;-90
2023/02/18 06:10:36;;;;;;;8.35;4.72;;;10.30;99.90;;;;;;4964564;28;20046;-90
2023/02/18 06:13:03;;;;;;;8.75;5.28;;;10.30;99.90;;;;;;4985959;28;20050;-91
2023/02/18 06:15:37;;;;;;;8.35;5.05;;;10.30;99.90;;;;;;4990744;28;20033;-89
2023/02/18 06:18:10;;;;;;;9.75;6.32;;;10.20;99.90;;;;;;4992714;28;20045;-90
2023/02/18 06:20:38;;;;;;;10.65;7.18;;;10.20;99.90;;;;;;4996370;28;20054;-90
2023/02/18 06:23:07;;;;;;;13.38;8.75;;;10.20;99.90;;;;;;5015510;28;20033;-90
2023/02/18 06:25:37;;;;;;;11.13;7.65;;;10.20;99.90;;;;;;4994973;28;20050;-92
2023/02/18 06:28:10;;;;;;;13.30;8.70;;;10.20;99.90;;;;;;4980135;28;20042;-92
2023/02/18 06:30:40;;;;;;;12.77;8.02;;;10.20;99.90;;;;;;4974339;28;20132;-94
2023/02/18 06:33:11;;;;;;;12.27;7.05;;;10.20;99.90;;;;;;4973197;28;20038;-90
2023/02/18 06:35:42;;;;;;;11.20;6.88;;;10.20;99.90;;;;;;4979401;28;20038;-91
2023/02/18 06:38:15;;;;;;;12.52;7.43;;;10.20;99.90;;;;;;4980236;28;20053;-90
2023/02/18 06:40:46;;;;;;;;;;;10.20;99.90;;;;;;4996428;28;20038;-93
2023/02/18 06:43:14;;;;;;;12.10;6.90;;;10.10;99.90;;;;;;4998714;28;19932;-92
2023/02/18 06:45:41;;;;;;;12.32;7.18;;;10.20;99.90;;;;;;4982229;28;20048;-92
2023/02/18 06:48:17;;;;;;;11.90;6.30;;;10.20;99.90;;;;;;4996194;28;20467;-92
2023/02/18 06:50:45;;;;;;;12.18;6.97;;;10.20;99.90;;;;;;4996606;28;20064;-93
2023/02/18 06:53:17;;;;;;;12.52;7.22;;;10.10;99.90;;;;;;4993932;28;20461;-93
2023/02/18 06:55:56;;;;;;;11.00;6.07;;;10.20;99.90;;;;;;4992670;28;20038;-93
2023/02/18 06:58:29;;;;;;;13.02;6.88;;;10.10;99.90;;;;;;5014876;28;20478;-93
2023/02/18 07:01:00;;;;;;;10.05;5.80;;;10.10;99.90;;;;;;4992988;28;20410;-91
2023/02/18 07:03:29;;;;;;;10.45;5.82;;;10.10;99.90;;;;;;4993399;28;20065;-90
2023/02/18 07:06:01;;;;;;;11.82;6.20;;;10.10;99.90;;;;;;4995749;28;20040;-92
2023/02/18 07:08:36;;;;;;;12.98;7.13;;;10.10;99.90;;;;;;4995711;28;20046;-92
2023/02/18 07:11:08;;;;;;;11.98;6.55;;;10.10;99.90;;;;;;4991128;28;20490;-90
2023/02/18 07:13:41;;;;;;;12.20;7.10;;;10.10;99.90;;;;;;4995408;28;20046;-91
2023/02/18 07:16:09;;;;;;;15.68;8.43;;;10.10;99.90;;;;;;5000379;28;20833;-91
2023/02/18 07:18:43;;;;;;;16.20;10.00;;;10.00;99.90;;;;;;4991376;28;20072;-92
2023/02/18 07:21:17;;;;;;;16.88;9.18;;;10.00;99.90;;;;;;4991518;28;20108;-91
2023/02/18 07:23:46;;;;;;;16.88;10.30;;;10.00;99.90;;;;;;4992859;28;20104;-92
2023/02/18 07:26:22;;;;;;;19.67;11.70;;;10.00;99.90;;;;;;5011426;28;20042;-89
2023/02/18 07:29:02;;;;;;;20.38;11.80;;;10.00;99.90;;;;;;4992833;28;20039;-93
2023/02/18 07:31:45;;;;;;;18.13;10.70;;;10.00;99.90;;;;;;5012050;28;20042;-91
2023/02/18 07:34:19;;;;;;;19.35;11.52;;;10.00;99.90;;;;;;4998148;28;20048;-93
2023/02/18 07:36:50;;;;;;;18.23;11.23;;;10.00;99.90;;;;;;5013479;28;20042;-91
2023/02/18 07:39:22;;;;;;;23.08;12.00;;;10.00;99.90;;;;;;4999860;28;20501;-91
2023/02/18 07:41:51;;;;;;;17.92;10.73;;;10.00;99.90;;;;;;4993888;28;20500;-92
2023/02/18 07:44:26;;;;;;;17.90;11.38;;;10.00;99.90;;;;;;4972268;28;20065;-94
2023/02/18 07:47:02;;;;;;;19.00;11.48;;;10.00;99.90;;;;;;5014243;28;20037;-94
2023/02/18 07:49:56;;;;;;;21.52;11.57;;;10.00;99.90;;;;;;5011585;28;20517;-92
2023/02/18 07:52:48;;;;;;;23.23;12.52;;;10.00;99.90;;;;;;4993991;28;20048;-91
2023/02/18 07:55:21;;;;;;;26.30;12.75;;;10.00;99.90;;;;;;4983768;28;20031;-92
2023/02/18 07:58:01;;;;;;;26.90;13.20;;;9.90;99.90;;;;;;4992228;28;20073;-93
2023/02/18 08:00:54;;;;;;;23.58;11.48;;;9.90;99.90;;;;;;4993754;28;20030;-92
2023/02/18 08:03:27;;;;;;;25.75;11.38;;;9.90;99.90;;;;;;5002271;28;20038;-92
2023/02/18 08:06:00;;;;;;;;;;;9.80;99.90;;;;;;5014069;28;20088;-89
2023/02/18 08:08:39;;;;;;;25.08;10.25;;;9.80;99.90;;;;;;4986044;28;20000;-92
2023/02/18 08:11:13;;;;;;;22.75;10.63;;;9.70;99.90;;;;;;4976069;28;20052;-92
2023/02/18 08:13:53;;;;;;;21.13;8.75;;;9.70;99.90;;;;;;5006126;28;20554;-93
2023/02/18 08:16:22;;;;;;;20.35;8.07;;;9.70;99.90;;;;;;5000434;28;20066;-93
2023/02/18 08:18:55;;;;;;;18.63;7.93;;;9.80;99.90;;;;;;4991478;28;20068;-91
2023/02/18 08:21:23;;;;;;;;;;;9.80;99.90;;;;;;4999749;28;20038;-90
2023/02/18 08:24:01;;;;;;;19.95;7.82;;;9.80;99.90;;;;;;4990250;28;20270;-90
2023/02/18 08:26:53;;;;;;;16.67;7.75;;;9.90;99.90;;;;;;4988017;28;20030;-90
2023/02/18 08:29:38;;;;;;;22.63;9.60;;;9.90;99.90;;;;;;4994975;28;20042;-89
2023/02/18 08:32:11;;;;;;;21.25;10.50;;;10.00;99.90;;;;;;4991803;28;20494;-90
2023/02/18 08:34:40;;;;;;;;;;;10.00;99.90;;;;;;4993848;28;20045;-92
2023/02/18 08:37:07;;;;;;;18.38;10.02;;;9.90;99.90;;;;;;4987494;28;19957;-92
2023/02/18 08:39:41;;;;;;;21.02;10.40;;;9.90;99.90;;;;;;5011163;28;20042;-90
2023/02/18 08:42:14;;;;;;;24.85;11.60;;;9.80;99.90;;;;;;5005528;28;20033;-91
2023/02/18 08:44:42;;;;;;;25.38;10.90;;;9.80;99.90;;;;;;4993152;28;20181;-91
2023/02/18 08:47:11;;;;;;;23.95;11.00;;;9.70;99.90;;;;;;5010130;28;20057;-92
2023/02/18 08:49:45;;;;;;;22.85;12.45;;;9.60;99.90;;;;;;5009405;28;20053;-93
2023/02/18 08:52:15;;;;;;;26.60;12.45;;;9.60;99.90;;;;;;4981449;28;20050;-91
2023/02/18 08:54:59;;;;;;;25.80;12.43;;;9.60;99.90;;;;;;4993394;28;20144;-92
2023/02/18 08:57:36;;;;;;;24.23;12.02;;;9.60;99.90;;;;;;5011521;28;21967;-91
2023/02/18 09:00:09;;;;;;;23.27;11.88;;;9.60;99.90;;;;;;4992733;28;20500;-91
2023/02/18 09:02:39;;;;;;;22.40;10.93;;;9.60;99.90;;;;;;5009253;28;20049;-91
2023/02/18 09:05:09;;;;;;;22.73;8.77;;;9.60;99.90;;;;;;4991607;28;20101;-92
2023/02/18 09:07:43;;;;;;;18.30;6.03;;;9.50;99.90;;;;;;4990368;28;20041;-91
2023/02/18 09:10:23;;;;;;;21.13;5.93;;;9.40;99.90;;;;;;5009559;28;20041;-90
2023/02/18 09:12:58;;;;;;;17.70;4.90;;;9.40;99.90;;;;;;5012751;28;20048;-93
2023/02/18 09:16:18;;;;;;;16.52;4.20;;;9.30;99.90;;;;;;5014471;28;20045;-92
2023/02/18 09:19:06;;;;;;;15.57;4.15;;;9.30;99.90;;;;;;4923149;28;20055;-90
2023/02/18 09:21:40;;;;;;;11.60;3.70;;;9.30;99.90;;;;;;4991972;28;20037;-91
2023/02/18 09:24:11;;;;;;;15.27;4.68;;;9.20;99.90;;;;;;4994316;28;20034;-90
2023/02/18 09:26:44;;;;;;;12.55;4.72;;;9.30;99.90;;;;;;4990189;28;20410;-90
2023/02/18 09:29:18;;;;;;;13.23;5.47;;;9.30;99.90;;;;;;4987561;28;20037;-91
2023/02/18 09:31:48;;;;;;;16.30;6.10;;;9.30;99.90;;;;;;4984041;28;20034;-91
2023/02/18 09:34:16;;;;;;;17.25;6.95;;;9.30;99.90;;;;;;4999072;28;20046;-89
2023/02/18 09:36:51;;;;;;;19.17;6.47;;;9.30;99.90;;;;;;5007259;28;20036;-90
2023/02/18 09:39:24;;;;;;;17.85;6.53;;;9.30;99.90;;;;;;5008191;28;20072;-91
2023/02/18 09:42:11;;;;;;;;;;;9.30;99.90;;;;;;5002915;28;20045;-90
2023/02/18 09:44:53;;;;;;;20.67;6.18;;;9.30;99.90;;;;;;5002057;28;19909;-92
2023/02/18 09:47:42;;;;;;;17.30;5.82;;;9.30;99.90;;;;;;4993423;28;20045;-92
2023/02/18 09:50:21;;;;;;;15.93;5.90;;;9.20;99.90;;;;;;4994102;28;20109;-91
2023/02/18 09:52:51;;;;;;;17.92;5.80;;;9.30;99.90;;;;;;4990757;28;20053;-90
2023/02/18 09:55:42;;;;;;;12.85;4.50;;;9.30;99.90;;;;;;4997006;28;20116;-90
2023/02/18 09:58:25;;;;;;;20.70;4.72;;;9.30;99.90;;;;;;4991355;28;20042;-91
2023/02/18 10:01:42;;;;;;;16.10;4.40;;;9.30;99.90;;;;;;5013625;28;20117;-90
2023/02/18 10:04:50;;;;;;;17.90;4.38;;;9.30;99.90;;;;;;5010143;28;20088;-90
2023/02/18 10:07:39;;;;;;;14.45;4.20;;;9.30;99.90;;;;;;4990050;28;20045;-91
2023/02/18 10:10:50;;;;;;;16.13;4.75;;;9.30;99.90;;;;;;4990951;28;20041;-91
2023/02/18 10:13:23;;;;;;;20.83;5.47;;;9.30;99.90;;;;;;4985935;28;20034;-91
2023/02/18 10:15:57;;;;;;;15.50;4.07;;;9.40;99.90;;;;;;4996156;28;20426;-92
2023/02/18 10:18:45;;;;;;;17.83;3.50;;;9.30;99.90;;;;;;4976922;28;20042;-91
2023/02/18 10:21:32;;;;;;;13.00;3.63;;;9.40;99.90;;;;;;4978889;28;20053;-91
2023/02/18 10:24:51;;;;;;;17.20;4.45;;;9.40;99.90;;;;;;4997776;28;20049;-90
2023/02/18 10:28:02;;;;;;;18.40;4.43;;;9.30;99.90;;;;;;4997166;28;20493;-92
2023/02/18 10:30:54;;;;;;;14.10;3.80;;;9.30;99.90;;;;;;4989742;28;20034;-89
2023/02/18 10:33:58;;;;;;;14.75;3.72;;;9.30;99.90;;;;;;4982374;28;20142;-89
2023/02/18 10:36:59;;;;;;;16.92;4.55;;;9.30;99.90;;;;;;5011854;28;20044;-90
2023/02/18 10:40:14;;;;;;;15.05;4.80;;;9.30;99.90;;;;;;5012379;28;20049;-90
2023/02/18 10:43:32;;;;;;;15.07;4.15;;;9.30;99.90;;;;;;5027345;28;20096;-91
2023/02/18 10:46:44;;;;;;;16.05;4.30;;;9.30;99.90;;;;;;5004535;28;20045;-90
2023/02/18 10:49:56;;;;;;;14.52;4.05;;;9.40;99.90;;;;;;4996456;28;20046;-90
2023/02/18 10:52:53;;;;;;;22.60;5.65;;;9.40;99.90;;;;;;5005780;28;20041;-93
2023/02/18 10:55:55;;;;;;;;;;;;;;;;;;;;;
2023/02/18 10:58:51;;;;;;;18.45;4.45;;;9.40;99.90;;;;;;4981577;28;20049;-92
2023/02/18 11:01:30;;;;;;;19.27;6.60;;;9.40;99.90;;;;;;5010806;28;20045;-92
2023/02/18 11:04:27;;;;;;;21.70;5.07;;;9.40;99.90;;;;;;4994941;28;20041;-91
2023/02/18 11:07:33;;;;;;;16.70;4.45;;;9.40;99.90;;;;;;4994102;28;20029;-93
2023/02/18 11:10:32;;;;;;;17.45;5.03;;;9.40;99.90;;;;;;4915800;29;20055;-92
2023/02/18 11:13:31;;;;;;;20.05;5.18;;;9.50;99.90;;;;;;4892214;29;20048;-93
2023/02/18 11:16:37;;;;;;;15.68;5.20;;;9.50;99.90;;;;;;4894147;29;20048;-91
2023/02/18 11:20:04;;;;;;;21.73;5.80;;;9.50;99.90;;;;;;4958852;28;20053;-90
2023/02/18 11:23:09;;;;;;;18.75;5.45;;;9.60;99.90;;;;;;4967267;28;20046;-91
2023/02/18 11:26:43;;;;;;;25.23;7.30;;;9.60;99.90;;;;;;4951803;28;20042;-89
2023/02/18 11:30:09;;;;;;;20.27;6.28;;;9.60;99.90;;;;;;4870722;29;20037;-92
2023/02/18 11:33:34;;;;;;;19.95;5.45;;;9.70;99.90;;;;;;4855425;29;20053;-90
2023/02/18 11:37:03;;;;;;;;;;;;;;;;;;;;;
2023/02/18 11:39:47;;;;;;;15.80;5.43;;;9.70;99.90;;;;;;4868451;29;20057;-90
2023/02/18 11:42:32;;;;;;;18.17;6.15;;;9.80;99.90;;;;;;4866879;29;20041;-91
2023/02/18 11:46:13;;;;;;;18.93;6.20;;;9.90;99.90;;;;;;4871803;29;20045;-91
2023/02/18 11:49:28;;;;;;;17.08;6.45;;;9.90;99.90;;;;;;4832523;29;20045;-91
2023/02/18 11:52:41;;;;;;;20.67;6.97;;;10.00;99.90;;;;;;4813602;29;20416;-90
2023/02/18 11:56:16;;;;;;;16.33;6.68;;;10.10;99.90;;;;;;4795744;29;20066;-91
2023/02/18 11:58:58;;;;;;;17.15;6.57;;;10.10;99.90;;;;;;4785951;29;20138;-90
2023/02/18 12:02:19;;;;;;;19.13;6.68;;;10.10;99.90;;;;;;4777725;29;20038;-90
2023/02/18 12:05:25;;;;;;;17.75;6.43;;;10.20;99.90;;;;;;4768459;30;20644;-90
2023/02/18 12:08:54;;;;;;;15.95;6.35;;;10.20;99.90;;;;;;4786063;29;20035;-91
2023/02/18 12:11:55;;;;;;;17.90;6.57;;;10.30;99.90;;;;;;4802820;29;20046;-90
2023/02/18 12:15:13;;;;;;;18.90;7.25;;;10.30;99.90;;;;;;4797750;29;20051;-89
2023/02/18 12:18:29;;;;;;;17.73;6.68;;;10.20;99.90;;;;;;4785322;29;20359;-91
2023/02/18 12:21:42;;;;;;;27.25;7.70;;;10.10;99.90;;;;;;4806729;29;20119;-90
2023/02/18 12:24:46;;;;;;;17.92;7.57;;;10.10;99.90;;;;;;4804460;29;20062;-90
2023/02/18 12:28:18;;;;;;;21.58;8.05;;;10.10;99.90;;;;;;4804317;29;20176;-91
2023/02/18 12:31:56;;;;;;;20.52;8.40;;;10.00;99.90;;;;;;4834854;29;20034;-90
2023/02/18 12:35:09;;;;;;;23.33;9.43;;;10.00;99.90;;;;;;4862224;29;20053;-90
2023/02/18 12:38:16;;;;;;;25.50;9.57;;;10.00;99.90;;;;;;4874713;28;20060;-90
2023/02/18 12:41:33;;;;;;;21.42;8.65;;;10.00;99.90;;;;;;4947390;28;20077;-90
2023/02/18 12:44:43;;;;;;;24.40;10.10;;;10.10;99.90;;;;;;4935824;28;20050;-90
2023/02/18 12:48:12;;;;;;;26.25;10.65;;;10.10;99.90;;;;;;4936006;28;20035;-90
2023/02/18 12:54:46;;;;;;;19.45;9.23;;;10.20;99.90;;;;;;4941523;28;20150;-89
2023/02/18 12:57:55;;;;;;;26.08;10.23;;;10.30;99.90;;;;;;4930675;29;20071;-89
2023/02/18 13:01:12;;;;;;;25.35;9.30;;;10.30;99.90;;;;;;4892893;29;20094;-90
2023/02/18 13:04:24;;;;;;;22.10;8.80;;;10.40;99.90;;;;;;4852027;29;20446;-90
2023/02/18 13:07:58;;;;;;;16.48;8.32;;;10.40;99.90;;;;;;4849636;29;20310;-89
2023/02/18 13:11:02;;;;;;;19.13;7.88;;;10.40;99.90;;;;;;4812369;29;20087;-90
2023/02/18 13:13:44;;;;;;;;;;;10.50;99.90;;;;;;4824263;29;20058;-89
2023/02/18 13:16:34;;;;;;;16.63;7.07;;;10.50;99.90;;;;;;4809815;29;19917;-89
2023/02/18 13:19:42;;;;;;;20.60;8.50;;;10.50;99.90;;;;;;4825098;29;20830;-90
2023/02/18 13:22:29;;;;;;;24.42;7.70;;;10.50;99.90;;;;;;4874658;29;20297;-88
2023/02/18 13:25:15;;;;;;;22.63;7.60;;;10.60;99.90;;;;;;4878365;29;20521;-90
2023/02/18 13:28:37;;;;;;;24.52;8.13;;;10.70;99.90;;;;;;4877704;29;20607;-90
2023/02/18 13:31:43;;;;;;;17.17;7.53;;;10.70;99.90;;;;;;4859623;29;20133;-90
2023/02/18 13:35:14;;;;;;;14.50;6.60;;;10.70;99.90;;;;;;4883573;29;20051;-90
2023/02/18 13:38:33;;;;;;;18.27;7.72;;;10.80;99.90;;;;;;4902335;29;20044;-88
2023/02/18 13:41:20;;;;;;;18.00;6.88;;;10.80;99.90;;;;;;4928597;29;20051;-89
2023/02/18 13:44:05;;;;;;;16.98;6.70;;;10.90;99.90;;;;;;4945937;28;20546;-92
2023/02/18 13:47:13;;;;;;;15.10;5.90;;;10.90;99.90;;;;;;4967403;28;20054;-90
2023/02/18 13:49:52;;;;;;;19.92;6.82;;;10.90;99.90;;;;;;4952532;28;20343;-89
2023/02/18 13:52:30;;;;;;;18.02;7.30;;;10.90;99.90;;;;;;4968104;28;20051;-90
2023/02/18 13:55:29;;;;;;;14.13;5.85;;;11.00;99.90;;;;;;4966334;28;20146;-90
2023/02/18 13:58:11;;;;;;;10.93;5.20;;;11.00;99.90;;;;;;4951513;28;20087;-90
2023/02/18 14:01:12;;;;;;;;;;;;;;;;;;;;;